Česky Dansk Deutsch English Español Suomi Français Magyar Italiano Nederlands norsk Polski Português svenska Türkçe

 

Het Weer

Diyarbakir (Turkije)

13:20, 31 juillet 2016 (GMT)

NWNNE
WE
SWSSE
Home            
Diyarbakir Batman Elazig Kamishli Urfa Mus Tur-Afb Malatya / Erhac Erzincan Erzurum Gaziantep Van Deir Ezzor Mosul Aleppo International Airport Sivas Trabzon Iskenderun Kars Palmyra Tokat Kayseri / Erkilet Khoy Adana / Incirlik

Om een weerknop op uw website of weblog te plaatsen, copieer onderstaande code en plak die in uw pagina. In het eerste vakje staat HTML-code, in het tweede vakje UBB-code.


Add to Google

Details

Wind speed:4 bf, 12 kn, 6.2 m/s, 13.8 miles/h, 22.2 km/h
Wind direction:SSE, 150° - WSW, 240°
Näkyvyys:Supérieure à 10000 m, 10 km, 32800 ft, 6.2 miles
Clouds:1 à 2/8è at 4000 ft, 1219 m
Température:39°C, 102°F
Température ressentie:36°C, 97°F
Point de rosée:4°C, 39°F
Pression atmosphérique:1004 hPa, 753.1 mmHg, 29.65 inHg, 0.991 atm
Humidité relative:11.6 %
METAR:LTCC 311320Z 20012KT 150V240 9999 FEW040 39/04 Q1004 NOSIG

Snelkoppelingen

Actuele weersinformatie van de hele wereld. Voeg locaties toe met het plus (+) symbool. Deze snelkoppelingen kunnen worden toegevoegd aan Google.

Lid van de Technetium groep

website free tracking
StatCounter NetStat W3C Validator

27-09-2022 12:16:04
astro.technetium.be money.technetium.be phote.technetium.be tafeltennistafel.technetium.be www.ligfiets.net